Time;durP1;ratioP1;P1;durP2;ratioP2;P2;SDS_P1;SDS_P2;PMS_P1;PMS_P2;Temp;Humidity;BMP_temperature;BMP_pressure;BME280_temperature;BME280_humidity;BME280_pressure;Samples;Min_cycle;Max_cycle;Signal;HPM_P1;HPM_P2
2023/12/23 00:01:17;;;;;;;4.23;1.00;;;6.90;99.90;;;;;;5036063;28;20381;-56
2023/12/23 00:03:42;;;;;;;1.43;0.80;;;6.90;99.90;;;;;;5053765;28;20108;-56
2023/12/23 00:06:09;;;;;;;3.67;0.50;;;7.00;99.90;;;;;;5053847;28;20508;-52
2023/12/23 00:08:35;;;;;;;2.53;0.60;;;7.00;99.90;;;;;;5053547;28;20025;-55
2023/12/23 00:11:00;;;;;;;2.77;0.60;;;7.10;99.90;;;;;;5053608;28;20029;-55
2023/12/23 00:13:26;;;;;;;1.37;0.37;;;7.10;99.90;;;;;;5053702;28;20032;-55
2023/12/23 00:15:52;;;;;;;3.20;0.40;;;7.10;99.90;;;;;;5053376;28;20025;-56
2023/12/23 00:18:17;;;;;;;2.30;1.10;;;7.10;99.90;;;;;;5052434;28;20086;-52
2023/12/23 00:20:43;;;;;;;1.93;0.60;;;7.10;99.90;;;;;;5053355;28;20044;-55
2023/12/23 00:23:10;;;;;;;5.67;1.07;;;7.10;99.90;;;;;;5053364;28;20064;-54
2023/12/23 00:25:36;;;;;;;1.97;0.50;;;7.10;99.90;;;;;;5053491;28;20145;-55
2023/12/23 00:28:02;;;;;;;7.93;1.00;;;7.20;99.90;;;;;;5053214;28;20037;-56
2023/12/23 00:30:28;;;;;;;2.77;0.57;;;7.20;99.90;;;;;;5053643;28;20025;-56
2023/12/23 00:32:54;;;;;;;7.97;1.00;;;7.20;99.90;;;;;;5053221;28;20040;-54
2023/12/23 00:35:20;;;;;;;5.70;0.73;;;7.20;99.90;;;;;;5035337;28;20043;-55
2023/12/23 00:37:46;;;;;;;3.73;0.83;;;7.20;99.90;;;;;;5053105;28;20036;-55
2023/12/23 00:40:12;;;;;;;4.90;0.63;;;7.30;99.90;;;;;;5053069;28;20037;-56
2023/12/23 00:42:37;;;;;;;3.87;0.70;;;7.30;99.90;;;;;;5034946;28;20032;-56
2023/12/23 00:45:05;;;;;;;6.30;0.80;;;7.30;99.90;;;;;;5052975;28;20020;-56
2023/12/23 00:47:31;;;;;;;4.03;0.50;;;7.20;99.90;;;;;;5034974;28;20029;-56
2023/12/23 00:49:56;;;;;;;3.80;0.70;;;7.20;99.90;;;;;;5052860;28;20031;-56
2023/12/23 00:52:22;;;;;;;7.43;1.23;;;7.30;99.90;;;;;;5034947;28;20029;-56
2023/12/23 00:54:48;;;;;;;5.73;0.70;;;7.30;99.90;;;;;;5035004;28;20401;-56
2023/12/23 00:57:13;;;;;;;7.57;0.83;;;7.30;99.90;;;;;;5052836;28;20557;-55
2023/12/23 00:59:39;;;;;;;5.87;0.53;;;7.40;99.90;;;;;;5035088;28;20382;-56
2023/12/23 01:02:05;;;;;;;4.73;0.70;;;7.40;99.90;;;;;;5034755;28;20132;-56
2023/12/23 01:04:30;;;;;;;2.37;0.67;;;7.40;99.90;;;;;;5052770;28;20535;-56
2023/12/23 01:06:56;;;;;;;3.13;0.70;;;7.40;99.90;;;;;;5034765;28;20043;-56
2023/12/23 01:09:21;;;;;;;5.10;0.60;;;7.30;99.90;;;;;;5052424;28;20021;-56
2023/12/23 01:11:47;;;;;;;4.43;0.63;;;7.30;99.90;;;;;;5034701;28;20505;-56
2023/12/23 01:14:12;;;;;;;2.87;0.50;;;7.30;99.90;;;;;;5035273;28;20036;-55
2023/12/23 01:16:38;;;;;;;3.50;0.60;;;7.30;99.90;;;;;;5034997;28;20470;-56
2023/12/23 01:19:05;;;;;;;3.77;0.60;;;7.30;99.90;;;;;;5052192;28;20036;-56
2023/12/23 01:21:31;;;;;;;5.77;0.43;;;7.30;99.90;;;;;;5018112;28;20037;-56
2023/12/23 01:23:56;;;;;;;1.90;0.43;;;7.30;99.90;;;;;;5052761;28;20147;-55
2023/12/23 01:26:22;;;;;;;5.17;0.63;;;7.20;99.90;;;;;;5035285;28;20393;-55
2023/12/23 01:28:47;;;;;;;2.77;0.50;;;7.20;99.90;;;;;;5018117;28;20048;-55
2023/12/23 01:31:13;;;;;;;5.23;0.63;;;7.20;99.90;;;;;;5052909;28;20033;-53
2023/12/23 01:33:39;;;;;;;6.23;0.73;;;7.20;99.90;;;;;;5053198;28;20025;-55
2023/12/23 01:36:05;;;;;;;5.17;1.03;;;7.20;99.90;;;;;;5037106;28;20056;-55
2023/12/23 01:38:34;;;;;;;5.03;0.40;;;7.10;99.90;;;;;;5034699;28;20079;-56
2023/12/23 01:41:00;;;;;;;0.47;0.20;;;7.20;99.90;;;;;;5051858;28;20470;-56
2023/12/23 01:43:26;;;;;;;2.97;0.47;;;7.20;99.90;;;;;;5034017;28;20128;-54
2023/12/23 01:45:56;;;;;;;4.43;0.90;;;7.20;99.90;;;;;;5034138;28;20040;-56
2023/12/23 01:48:22;;;;;;;4.87;0.70;;;7.20;99.90;;;;;;5034016;28;20029;-55
2023/12/23 01:50:50;;;;;;;2.83;0.50;;;7.10;99.90;;;;;;5033983;28;20036;-53
2023/12/23 01:53:17;;;;;;;3.27;0.47;;;7.10;99.90;;;;;;5033961;28;20055;-55
2023/12/23 01:55:42;;;;;;;1.20;0.60;;;7.10;99.90;;;;;;5051886;28;20068;-55
2023/12/23 01:58:08;;;;;;;5.33;0.90;;;7.10;99.90;;;;;;5033795;28;20547;-55
2023/12/23 02:00:37;;;;;;;2.93;0.53;;;7.20;99.90;;;;;;5033795;28;20029;-59
2023/12/23 02:03:03;;;;;;;3.63;0.55;;;7.20;99.90;;;;;;5033932;28;20529;-53
2023/12/23 02:05:29;;;;;;;2.50;0.90;;;7.20;99.90;;;;;;5017465;28;20029;-55
2023/12/23 02:07:55;;;;;;;5.33;0.60;;;7.20;99.90;;;;;;5033742;28;20032;-54
2023/12/23 02:10:21;;;;;;;5.20;1.10;;;7.20;99.90;;;;;;5051583;28;20040;-51
2023/12/23 02:13:05;;;;;;;3.43;0.47;;;7.20;99.90;;;;;;5051576;28;20032;-51
2023/12/23 02:15:33;;;;;;;6.40;1.00;;;7.10;99.90;;;;;;5017408;28;20032;-56
2023/12/23 02:18:01;;;;;;;3.20;0.70;;;7.10;99.90;;;;;;5033594;28;20029;-56
2023/12/23 02:20:27;;;;;;;2.88;0.47;;;7.10;99.90;;;;;;5051605;28;20103;-55
2023/12/23 02:22:53;;;;;;;5.17;0.50;;;7.10;99.90;;;;;;5033595;28;20636;-55
2023/12/23 02:25:21;;;;;;;5.63;0.70;;;7.10;99.90;;;;;;5017227;28;20120;-54
2023/12/23 02:27:58;;;;;;;2.23;0.40;;;7.10;99.90;;;;;;5051491;28;20351;-55
2023/12/23 02:30:24;;;;;;;4.43;0.60;;;7.00;99.90;;;;;;5033771;28;20037;-55
2023/12/23 02:32:51;;;;;;;4.57;0.70;;;7.10;99.90;;;;;;5033602;28;20040;-56
2023/12/23 02:35:17;;;;;;;3.17;0.50;;;7.10;99.90;;;;;;5017189;28;20037;-53
2023/12/23 02:37:42;;;;;;;2.27;0.47;;;7.10;99.90;;;;;;5051205;28;20036;-55
2023/12/23 02:40:09;;;;;;;5.33;0.63;;;7.10;99.90;;;;;;5034326;28;20036;-55
2023/12/23 02:42:35;;;;;;;6.30;0.60;;;7.10;99.90;;;;;;5037207;28;20044;-54
2023/12/23 02:45:03;;;;;;;3.50;0.77;;;7.00;99.90;;;;;;5037471;28;20057;-55
2023/12/23 02:47:28;;;;;;;3.70;0.50;;;7.00;99.90;;;;;;5037279;28;20037;-56
2023/12/23 02:49:54;;;;;;;4.47;0.70;;;7.00;99.90;;;;;;5037234;28;20021;-56
2023/12/23 02:52:20;;;;;;;2.87;0.50;;;7.00;99.90;;;;;;5037165;28;20033;-55
2023/12/23 02:54:46;;;;;;;5.00;0.67;;;7.10;99.90;;;;;;5037345;28;20123;-52
2023/12/23 02:57:12;;;;;;;4.07;0.90;;;7.00;99.90;;;;;;5037137;28;20033;-56
2023/12/23 02:59:37;;;;;;;5.30;0.73;;;7.00;99.90;;;;;;5037222;28;20473;-56
2023/12/23 03:02:03;;;;;;;4.57;1.20;;;7.00;99.90;;;;;;5054954;28;20044;-56
2023/12/23 03:04:29;;;;;;;1.60;0.90;;;7.00;99.90;;;;;;5037199;28;20033;-55
2023/12/23 03:06:54;;;;;;;4.17;0.60;;;7.10;99.90;;;;;;5054915;28;20075;-56
2023/12/23 03:09:20;;;;;;;1.50;0.70;;;7.10;99.90;;;;;;5054629;28;20033;-55
2023/12/23 03:11:45;;;;;;;4.07;0.90;;;7.10;99.90;;;;;;5036919;28;20076;-52
2023/12/23 03:14:11;;;;;;;5.03;1.10;;;7.10;99.90;;;;;;5036960;28;20029;-55
2023/12/23 03:16:36;;;;;;;7.40;1.63;;;7.10;99.90;;;;;;5036888;28;20037;-55
2023/12/23 03:19:03;;;;;;;4.90;1.80;;;7.10;99.90;;;;;;5054550;28;20055;-55
2023/12/23 03:21:29;;;;;;;6.53;2.03;;;7.10;99.90;;;;;;5036569;28;20033;-53
2023/12/23 03:23:55;;;;;;;5.17;1.67;;;7.10;99.90;;;;;;5036573;28;20124;-55
2023/12/23 03:26:21;;;;;;;3.27;1.40;;;7.20;99.90;;;;;;5036869;28;20163;-56
2023/12/23 03:28:47;;;;;;;5.93;1.60;;;7.20;99.90;;;;;;5036388;28;20029;-55
2023/12/23 03:31:12;;;;;;;6.80;2.00;;;7.30;99.90;;;;;;5036577;28;20619;-56
2023/12/23 03:33:39;;;;;;;5.13;1.97;;;7.30;99.90;;;;;;5020125;28;20037;-55
2023/12/23 03:36:06;;;;;;;7.77;2.23;;;7.40;99.90;;;;;;5054344;28;20032;-52
2023/12/23 03:38:34;;;;;;;5.37;2.03;;;7.40;99.90;;;;;;5054232;28;20051;-56
2023/12/23 03:40:59;;;;;;;5.57;1.90;;;7.40;99.90;;;;;;5054249;28;20048;-56
2023/12/23 03:43:25;;;;;;;7.87;2.00;;;7.40;99.90;;;;;;5054411;28;20025;-54
2023/12/23 03:45:50;;;;;;;8.33;2.27;;;7.50;99.90;;;;;;5054261;28;20025;-56
2023/12/23 03:48:16;;;;;;;6.30;2.47;;;7.60;99.90;;;;;;5036112;28;20037;-56
2023/12/23 03:50:42;;;;;;;8.47;2.50;;;7.60;99.90;;;;;;5035743;28;20497;-55
2023/12/23 03:53:08;;;;;;;7.10;2.67;;;7.60;99.90;;;;;;5036174;28;20313;-56
2023/12/23 03:55:34;;;;;;;6.00;2.37;;;7.70;99.90;;;;;;5036177;28;20294;-56
2023/12/23 03:58:00;;;;;;;11.87;2.50;;;7.80;99.90;;;;;;5035883;28;20033;-56
2023/12/23 04:00:26;;;;;;;11.33;2.90;;;7.90;99.90;;;;;;5036005;28;20033;-56
2023/12/23 04:02:54;;;;;;;6.90;2.13;;;8.00;99.90;;;;;;5035988;28;20120;-55
2023/12/23 04:05:21;;;;;;;8.23;2.57;;;8.00;99.90;;;;;;5053928;28;20036;-55
2023/12/23 04:07:50;;;;;;;10.07;3.17;;;8.10;99.90;;;;;;5053508;28;20033;-56
2023/12/23 04:10:16;;;;;;;11.23;2.25;;;8.20;99.90;;;;;;5035793;28;20047;-56
2023/12/23 04:12:42;;;;;;;7.67;2.90;;;8.30;99.90;;;;;;5053673;28;20478;-56
2023/12/23 04:15:08;;;;;;;9.50;2.53;;;8.40;99.90;;;;;;5035779;28;20040;-55
2023/12/23 04:17:34;;;;;;;6.67;2.07;;;8.40;99.90;;;;;;5035566;28;20041;-56
2023/12/23 04:20:00;;;;;;;10.60;2.60;;;8.50;99.90;;;;;;5053651;28;20390;-54
2023/12/23 04:22:26;;;;;;;9.23;2.93;;;8.50;99.90;;;;;;5035755;28;20170;-52
2023/12/23 04:24:52;;;;;;;7.70;2.23;;;8.50;99.90;;;;;;5035637;28;20100;-55
2023/12/23 04:27:18;;;;;;;5.70;2.60;;;8.60;99.90;;;;;;5053385;28;20033;-56
2023/12/23 04:29:44;;;;;;;5.83;2.83;;;8.60;99.90;;;;;;5035459;28;20028;-51
2023/12/23 04:32:10;;;;;;;7.00;2.70;;;8.60;99.90;;;;;;5035465;28;20028;-52
2023/12/23 04:34:37;;;;;;;10.40;3.37;;;8.60;99.90;;;;;;5053539;28;20131;-54
2023/12/23 04:37:03;;;;;;;10.83;3.23;;;8.60;99.90;;;;;;5035659;28;20033;-55
2023/12/23 04:39:29;;;;;;;9.63;3.00;;;8.60;99.90;;;;;;5035751;28;20159;-55
2023/12/23 04:41:55;;;;;;;6.77;2.77;;;8.60;99.90;;;;;;5035573;28;20025;-53
2023/12/23 04:44:22;;;;;;;8.87;2.90;;;8.60;99.90;;;;;;5035549;28;20028;-52
2023/12/23 04:46:49;;;;;;;6.77;3.10;;;8.60;99.90;;;;;;5036255;28;20090;-53
2023/12/23 04:49:14;;;;;;;6.17;2.90;;;8.60;99.90;;;;;;5035384;28;20095;-55
2023/12/23 04:51:44;;;;;;;9.53;3.53;;;8.60;99.90;;;;;;5035796;28;20108;-52
2023/12/23 04:54:11;;;;;;;8.00;3.90;;;8.60;99.90;;;;;;5037613;28;20071;-54
2023/12/23 04:56:37;;;;;;;12.63;5.40;;;8.60;99.90;;;;;;5038555;28;20033;-55
2023/12/23 04:59:03;;;;;;;9.17;3.40;;;8.60;99.90;;;;;;5054042;28;20090;-52
2023/12/23 05:01:29;;;;;;;5.30;2.67;;;8.60;99.90;;;;;;5036443;28;20178;-52
2023/12/23 05:03:55;;;;;;;8.03;3.23;;;8.60;99.90;;;;;;5036549;28;20052;-53
2023/12/23 05:06:21;;;;;;;9.60;3.60;;;8.60;99.90;;;;;;5054747;28;20029;-52
2023/12/23 05:08:47;;;;;;;10.33;3.70;;;8.60;99.90;;;;;;5054521;28;20037;-55
2023/12/23 05:11:13;;;;;;;8.47;3.33;;;8.60;99.90;;;;;;5053269;28;20071;-55
2023/12/23 05:13:38;;;;;;;8.10;2.63;;;8.60;99.90;;;;;;5034819;28;20502;-56
2023/12/23 05:16:04;;;;;;;7.83;2.63;;;8.60;99.90;;;;;;5052565;28;20074;-56
2023/12/23 05:18:31;;;;;;;8.13;3.10;;;8.50;99.90;;;;;;5034484;28;20036;-56
2023/12/23 05:20:57;;;;;;;8.47;2.70;;;8.50;99.90;;;;;;5052669;28;20025;-56
2023/12/23 05:23:23;;;;;;;11.80;3.13;;;8.50;99.90;;;;;;5034665;28;20041;-56
2023/12/23 05:25:50;;;;;;;8.73;2.87;;;8.50;99.90;;;;;;5034477;28;20029;-55
2023/12/23 05:28:16;;;;;;;7.40;2.40;;;8.50;99.90;;;;;;5034272;28;20028;-56
2023/12/23 05:30:42;;;;;;;6.77;3.13;;;8.60;99.90;;;;;;5034156;28;20547;-56
2023/12/23 05:33:07;;;;;;;9.40;2.47;;;8.50;99.90;;;;;;5052212;28;20032;-55
2023/12/23 05:35:33;;;;;;;5.80;3.23;;;8.60;99.90;;;;;;5052114;28;20040;-56
2023/12/23 05:37:59;;;;;;;6.80;2.77;;;8.60;99.90;;;;;;5034005;28;20068;-56
2023/12/23 05:40:24;;;;;;;6.10;2.60;;;8.60;99.90;;;;;;5051967;28;20025;-56
2023/12/23 05:42:50;;;;;;;7.33;2.50;;;8.60;99.90;;;;;;5052130;28;20473;-56
2023/12/23 05:45:16;;;;;;;5.20;2.60;;;8.60;99.90;;;;;;5051975;28;20033;-56
2023/12/23 05:47:43;;;;;;;6.93;2.77;;;8.70;99.90;;;;;;5051817;28;20024;-55
2023/12/23 05:50:09;;;;;;;4.97;2.40;;;8.70;99.90;;;;;;5051831;28;20393;-55
2023/12/23 05:52:35;;;;;;;6.47;2.07;;;8.70;99.90;;;;;;5051808;28;20029;-56
2023/12/23 05:55:00;;;;;;;9.83;2.50;;;8.70;99.90;;;;;;5051914;28;20028;-56
2023/12/23 05:57:26;;;;;;;9.20;2.50;;;8.70;99.90;;;;;;5051783;28;20029;-55
2023/12/23 05:59:52;;;;;;;6.87;2.43;;;8.60;99.90;;;;;;5051712;28;20122;-56
2023/12/23 06:02:18;;;;;;;7.67;2.37;;;8.70;99.90;;;;;;5051630;28;20029;-56
2023/12/23 06:04:44;;;;;;;7.23;3.03;;;8.70;99.90;;;;;;5017392;28;20072;-56
2023/12/23 06:07:10;;;;;;;5.67;2.20;;;8.70;99.90;;;;;;5051537;28;20118;-55
2023/12/23 06:09:36;;;;;;;6.17;2.10;;;8.80;99.90;;;;;;5051606;28;20430;-55
2023/12/23 06:12:02;;;;;;;6.80;2.57;;;8.80;99.90;;;;;;5051595;28;20139;-56
2023/12/23 06:14:28;;;;;;;5.87;2.33;;;8.80;99.90;;;;;;5053191;28;20112;-56
2023/12/23 06:16:53;;;;;;;6.93;3.17;;;8.80;99.90;;;;;;5055898;28;20037;-56
2023/12/23 06:19:19;;;;;;;5.00;2.37;;;8.80;99.90;;;;;;5055496;28;20080;-55
2023/12/23 06:21:46;;;;;;;5.93;2.43;;;8.90;99.90;;;;;;5055634;28;20029;-55
2023/12/23 06:24:13;;;;;;;7.43;2.20;;;8.90;99.90;;;;;;5055732;28;20075;-53
2023/12/23 06:26:38;;;;;;;3.97;1.93;;;8.90;99.90;;;;;;5055762;28;20504;-55
2023/12/23 06:29:04;;;;;;;5.27;2.37;;;8.90;99.90;;;;;;5055395;28;20100;-56
2023/12/23 06:31:30;;;;;;;7.37;2.30;;;8.90;99.90;;;;;;5055448;28;20444;-56
2023/12/23 06:33:55;;;;;;;6.43;2.40;;;8.90;99.90;;;;;;5055764;28;20072;-56
2023/12/23 06:36:21;;;;;;;6.87;2.10;;;8.80;99.90;;;;;;5055513;28;20031;-54
2023/12/23 06:38:46;;;;;;;6.17;2.20;;;8.90;99.90;;;;;;5055333;28;20460;-55
2023/12/23 06:41:12;;;;;;;6.63;2.00;;;8.90;99.90;;;;;;5037386;28;20395;-56
2023/12/23 06:43:38;;;;;;;6.50;2.53;;;8.90;99.90;;;;;;5055349;28;20024;-54
2023/12/23 06:46:04;;;;;;;4.97;1.80;;;8.90;99.90;;;;;;5055368;28;20039;-57
2023/12/23 06:48:29;;;;;;;10.77;2.90;;;8.90;99.90;;;;;;5055072;28;20028;-56
2023/12/23 06:50:55;;;;;;;5.77;2.00;;;8.90;99.90;;;;;;5056287;28;20025;-56
2023/12/23 06:53:21;;;;;;;7.10;2.10;;;8.90;99.90;;;;;;5020926;28;20033;-56
2023/12/23 06:55:46;;;;;;;7.93;2.40;;;8.90;99.90;;;;;;5055340;28;20405;-56
2023/12/23 06:58:12;;;;;;;8.67;2.07;;;8.90;99.90;;;;;;5055027;28;20041;-54
2023/12/23 07:00:37;;;;;;;11.53;2.40;;;8.90;99.90;;;;;;5055136;28;20032;-55
2023/12/23 07:03:05;;;;;;;6.47;1.80;;;8.90;99.90;;;;;;5054976;28;20045;-53
2023/12/23 07:05:31;;;;;;;7.77;2.17;;;8.90;99.90;;;;;;5055413;28;20029;-53
2023/12/23 07:07:56;;;;;;;4.67;1.43;;;8.90;99.90;;;;;;5054839;28;20566;-52
2023/12/23 07:10:22;;;;;;;5.57;1.63;;;8.90;99.90;;;;;;5054835;28;20032;-55
2023/12/23 07:12:47;;;;;;;7.27;2.47;;;9.00;99.90;;;;;;5054743;28;20112;-54
2023/12/23 07:15:13;;;;;;;4.17;1.20;;;9.00;99.90;;;;;;5054795;28;20498;-55
2023/12/23 07:17:39;;;;;;;8.07;1.60;;;9.00;99.90;;;;;;5054604;28;20083;-54
2023/12/23 07:20:05;;;;;;;6.53;1.70;;;8.90;99.90;;;;;;5054836;28;20083;-55
2023/12/23 07:22:31;;;;;;;5.80;1.50;;;9.00;99.90;;;;;;5054563;28;20047;-56
2023/12/23 07:24:56;;;;;;;4.57;1.70;;;9.00;99.90;;;;;;5054577;28;20116;-52
2023/12/23 07:27:22;;;;;;;6.63;1.90;;;9.00;99.90;;;;;;5053745;28;20025;-56
2023/12/23 07:29:48;;;;;;;6.47;2.07;;;9.00;99.90;;;;;;5054483;28;20032;-51
2023/12/23 07:32:14;;;;;;;17.70;6.20;;;9.00;99.90;;;;;;5054420;28;20120;-56
2023/12/23 07:34:40;;;;;;;7.03;1.90;;;9.00;99.90;;;;;;5054530;28;20111;-55
2023/12/23 07:37:07;;;;;;;5.87;1.80;;;9.00;99.90;;;;;;5054503;28;20535;-52
2023/12/23 07:39:33;;;;;;;6.03;1.60;;;9.00;99.90;;;;;;5054311;28;20090;-56
2023/12/23 07:41:59;;;;;;;6.33;1.50;;;9.00;99.90;;;;;;5054031;28;20041;-57
2023/12/23 07:44:25;;;;;;;8.30;2.00;;;9.00;99.90;;;;;;5054287;28;20124;-56
2023/12/23 07:46:50;;;;;;;3.90;1.57;;;9.00;99.90;;;;;;5054175;28;20530;-57
2023/12/23 07:49:16;;;;;;;8.87;1.80;;;8.90;99.90;;;;;;5053829;28;20393;-55
2023/12/23 07:51:41;;;;;;;5.70;1.43;;;8.90;99.90;;;;;;5054177;28;20041;-56
2023/12/23 07:54:07;;;;;;;7.13;1.87;;;8.80;99.90;;;;;;5054060;28;20057;-52
2023/12/23 07:56:33;;;;;;;5.53;1.50;;;8.80;99.90;;;;;;5053876;28;20473;-55
2023/12/23 07:58:58;;;;;;;2.73;1.53;;;8.80;99.90;;;;;;5053768;28;20040;-55
2023/12/23 08:01:24;;;;;;;4.33;1.70;;;8.80;99.90;;;;;;5053771;28;20033;-56
2023/12/23 08:03:50;;;;;;;6.27;1.63;;;8.80;99.90;;;;;;5053892;28;20047;-54
2023/12/23 08:06:18;;;;;;;8.53;1.77;;;8.80;99.90;;;;;;5053936;28;20470;-55
2023/12/23 08:08:44;;;;;;;5.20;1.40;;;8.80;99.90;;;;;;5053591;28;20074;-56
2023/12/23 08:11:10;;;;;;;8.03;1.67;;;8.80;99.90;;;;;;5054173;28;20382;-53
2023/12/23 08:13:36;;;;;;;4.43;1.57;;;8.90;99.90;;;;;;5053731;28;20131;-56
2023/12/23 08:16:02;;;;;;;5.80;1.30;;;8.80;99.90;;;;;;5053762;28;20040;-52
2023/12/23 08:18:29;;;;;;;7.50;1.40;;;8.80;99.90;;;;;;5053342;28;20037;-55
2023/12/23 08:20:54;;;;;;;5.77;1.47;;;8.80;99.90;;;;;;5035623;28;20083;-56
2023/12/23 08:23:20;;;;;;;6.00;1.40;;;8.90;99.90;;;;;;5053659;28;20033;-54
2023/12/23 08:25:47;;;;;;;4.70;1.40;;;8.90;99.90;;;;;;5053661;28;20071;-54
2023/12/23 08:28:12;;;;;;;6.10;1.30;;;8.90;99.90;;;;;;5053384;28;20056;-56
2023/12/23 08:30:39;;;;;;;5.47;1.40;;;9.00;99.90;;;;;;5053368;28;20470;-55
2023/12/23 08:33:04;;;;;;;7.13;1.23;;;9.00;99.90;;;;;;5053452;28;20398;-56
2023/12/23 08:35:31;;;;;;;12.23;1.40;;;9.00;99.90;;;;;;5053412;28;20081;-56
2023/12/23 08:38:00;;;;;;;5.30;1.10;;;9.00;99.90;;;;;;5052111;28;20371;-54
2023/12/23 08:40:26;;;;;;;4.97;1.77;;;9.10;99.90;;;;;;5053306;28;20123;-52
2023/12/23 08:42:52;;;;;;;7.23;1.00;;;9.10;99.90;;;;;;5052993;28;20036;-53
2023/12/23 08:45:18;;;;;;;8.33;1.30;;;9.20;99.90;;;;;;5053341;28;20021;-53
2023/12/23 08:47:44;;;;;;;6.43;1.27;;;9.20;99.90;;;;;;5052874;28;20071;-51
2023/12/23 08:50:10;;;;;;;4.20;1.20;;;9.40;99.90;;;;;;5052985;28;20119;-54
2023/12/23 08:52:35;;;;;;;5.77;1.93;;;9.40;99.90;;;;;;5053166;28;20048;-55
2023/12/23 08:55:02;;;;;;;8.03;1.33;;;9.50;99.90;;;;;;5057608;28;20036;-56
2023/12/23 08:57:28;;;;;;;3.83;1.13;;;9.40;99.90;;;;;;5053218;28;20362;-55
2023/12/23 08:59:54;;;;;;;7.10;1.20;;;9.50;99.90;;;;;;5053085;28;20078;-56
2023/12/23 09:02:19;;;;;;;10.43;1.57;;;9.50;99.90;;;;;;5053076;28;20036;-55
2023/12/23 09:04:45;;;;;;;5.90;1.20;;;9.50;99.90;;;;;;5053298;28;20077;-56
2023/12/23 09:07:12;;;;;;;4.27;1.03;;;9.50;99.90;;;;;;5052516;28;20028;-56
2023/12/23 09:09:40;;;;;;;3.33;0.90;;;9.60;99.90;;;;;;5052548;28;20036;-56
2023/12/23 09:12:06;;;;;;;6.70;1.13;;;9.50;99.90;;;;;;5052479;28;20041;-57
2023/12/23 09:14:32;;;;;;;5.37;1.10;;;9.60;99.90;;;;;;5052641;28;20500;-56
2023/12/23 09:16:58;;;;;;;5.70;1.33;;;9.60;99.90;;;;;;5052586;28;20037;-55
2023/12/23 09:19:23;;;;;;;6.73;1.47;;;9.70;99.90;;;;;;5052164;28;20128;-56
2023/12/23 09:21:49;;;;;;;6.57;1.90;;;9.70;99.90;;;;;;5052232;28;20025;-56
2023/12/23 09:24:14;;;;;;;10.30;2.27;;;9.70;99.90;;;;;;5052447;28;20363;-57
2023/12/23 09:26:41;;;;;;;5.63;1.40;;;9.70;99.90;;;;;;5052413;28;20033;-57
2023/12/23 09:29:07;;;;;;;3.37;1.13;;;9.70;99.90;;;;;;5052102;28;20048;-56
2023/12/23 09:31:33;;;;;;;7.00;1.17;;;9.70;99.90;;;;;;5052168;28;20025;-57
2023/12/23 09:33:59;;;;;;;7.43;1.40;;;9.80;99.90;;;;;;5052212;28;20436;-56
2023/12/23 09:36:25;;;;;;;6.00;1.00;;;9.90;99.90;;;;;;5052080;28;20078;-57
2023/12/23 09:38:50;;;;;;;6.87;1.23;;;9.90;99.90;;;;;;5051894;28;20029;-56
2023/12/23 09:41:16;;;;;;;9.77;1.43;;;9.80;99.90;;;;;;5051954;28;20079;-56
2023/12/23 09:43:45;;;;;;;8.10;0.90;;;9.80;99.90;;;;;;5052243;28;20041;-55
2023/12/23 09:46:14;;;;;;;3.58;0.70;;;9.80;99.90;;;;;;5034198;28;20033;-54
2023/12/23 09:48:40;;;;;;;4.90;1.07;;;9.90;99.90;;;;;;5051650;28;20060;-54
2023/12/23 09:51:07;;;;;;;4.50;0.77;;;9.80;99.90;;;;;;5051798;28;20072;-54
2023/12/23 09:53:37;;;;;;;5.77;0.90;;;9.90;99.90;;;;;;5052067;28;20100;-56
2023/12/23 09:56:04;;;;;;;5.43;1.10;;;9.90;99.90;;;;;;5051930;28;20048;-56
2023/12/23 09:58:30;;;;;;;4.50;0.87;;;9.90;99.90;;;;;;5051635;28;20029;-56
2023/12/23 10:00:55;;;;;;;4.20;0.70;;;10.00;99.90;;;;;;5051765;28;20036;-57
2023/12/23 10:03:22;;;;;;;3.77;0.80;;;10.00;99.90;;;;;;5051720;28;20041;-57
2023/12/23 10:05:47;;;;;;;7.13;1.83;;;9.90;99.90;;;;;;5051851;28;20393;-56
2023/12/23 10:08:13;;;;;;;5.80;0.80;;;9.90;99.90;;;;;;5051559;28;20021;-55
2023/12/23 10:10:39;;;;;;;2.70;0.83;;;9.90;99.90;;;;;;5051564;28;20057;-57
2023/12/23 10:13:04;;;;;;;4.63;1.00;;;9.90;99.90;;;;;;5051666;28;20033;-57
2023/12/23 10:15:30;;;;;;;4.30;1.03;;;9.80;99.90;;;;;;5051594;28;20055;-56
2023/12/23 10:17:57;;;;;;;3.97;0.80;;;9.80;99.90;;;;;;5033513;28;20436;-57
2023/12/23 10:20:22;;;;;;;3.37;0.70;;;9.80;99.90;;;;;;5051904;28;20032;-52
2023/12/23 10:22:48;;;;;;;3.10;0.63;;;9.80;99.90;;;;;;5051996;28;20043;-54
2023/12/23 10:25:14;;;;;;;5.97;1.03;;;9.70;99.90;;;;;;5051935;28;20060;-54
2023/12/23 10:27:41;;;;;;;4.97;0.87;;;9.70;99.90;;;;;;5051522;28;20476;-55
2023/12/23 10:30:11;;;;;;;5.00;0.90;;;9.70;99.90;;;;;;5051591;28;20319;-53
2023/12/23 10:32:38;;;;;;;1.73;0.60;;;9.70;99.90;;;;;;5051378;28;20037;-54
2023/12/23 10:35:06;;;;;;;5.23;1.13;;;9.70;99.90;;;;;;5051490;28;20037;-55
2023/12/23 10:37:34;;;;;;;2.33;1.07;;;9.70;99.90;;;;;;5051369;28;20032;-53
2023/12/23 10:40:20;;;;;;;3.80;1.37;;;9.80;99.90;;;;;;5051612;28;20033;-56
2023/12/23 10:42:48;;;;;;;3.47;0.80;;;9.80;99.90;;;;;;5051241;28;20128;-54
2023/12/23 10:45:14;;;;;;;4.97;1.00;;;9.80;99.90;;;;;;5051216;28;20029;-54
2023/12/23 10:47:41;;;;;;;6.00;0.77;;;9.80;99.90;;;;;;5051248;28;20118;-54
2023/12/23 10:50:09;;;;;;;3.97;0.70;;;9.80;99.90;;;;;;5051365;28;20025;-54
2023/12/23 10:52:36;;;;;;;2.77;0.90;;;9.80;99.90;;;;;;5051245;28;20043;-55
2023/12/23 10:55:03;;;;;;;4.10;0.90;;;9.70;99.90;;;;;;5051383;28;20488;-54
2023/12/23 10:57:30;;;;;;;5.17;1.47;;;9.70;99.90;;;;;;5051212;28;20041;-52
2023/12/23 10:59:56;;;;;;;6.60;0.90;;;9.70;99.90;;;;;;5051178;28;20466;-55
2023/12/23 11:02:34;;;;;;;3.17;1.20;;;9.70;99.90;;;;;;5053856;28;20027;-55
2023/12/23 11:05:03;;;;;;;4.90;0.87;;;9.70;99.90;;;;;;5055433;28;20037;-55
2023/12/23 11:07:33;;;;;;;4.88;1.13;;;9.70;99.90;;;;;;5054904;28;20047;-51
2023/12/23 11:10:02;;;;;;;4.73;1.23;;;9.60;99.90;;;;;;5054799;28;20044;-55
2023/12/23 11:12:30;;;;;;;3.80;0.83;;;9.70;99.90;;;;;;5054797;28;20044;-55
2023/12/23 11:14:57;;;;;;;4.20;1.20;;;9.70;99.90;;;;;;5054780;28;20784;-54
2023/12/23 11:17:28;;;;;;;6.43;1.10;;;9.70;99.90;;;;;;5036852;28;20098;-55
2023/12/23 11:20:01;;;;;;;4.53;1.20;;;9.70;99.90;;;;;;5054727;28;20036;-54
2023/12/23 11:22:28;;;;;;;4.63;1.00;;;9.70;99.90;;;;;;5054578;28;20037;-55
2023/12/23 11:24:54;;;;;;;5.43;1.03;;;9.70;99.90;;;;;;5054629;28;20124;-54
2023/12/23 11:27:36;;;;;;;5.07;1.77;;;9.80;99.90;;;;;;5054648;28;20033;-57
2023/12/23 11:30:06;;;;;;;4.90;1.40;;;9.70;99.90;;;;;;5054896;28;20029;-57
2023/12/23 11:32:38;;;;;;;5.72;1.33;;;9.80;99.90;;;;;;5054579;28;20111;-56
2023/12/23 11:35:07;;;;;;;12.30;1.73;;;9.90;99.90;;;;;;5036682;28;20037;-56
2023/12/23 11:37:52;;;;;;;6.88;1.30;;;9.90;99.90;;;;;;5054494;28;20033;-55
2023/12/23 11:40:18;;;;;;;3.97;1.30;;;9.90;99.90;;;;;;5054400;28;20033;-56
2023/12/23 11:42:44;;;;;;;3.77;1.00;;;9.90;99.90;;;;;;5054226;28;20029;-56
2023/12/23 11:45:11;;;;;;;4.10;1.13;;;9.90;99.90;;;;;;5054482;28;20493;-54
2023/12/23 11:47:37;;;;;;;5.07;0.90;;;9.90;99.90;;;;;;5054268;28;20470;-56
2023/12/23 11:50:03;;;;;;;6.13;0.80;;;9.90;99.90;;;;;;5054161;28;20037;-57
2023/12/23 11:52:29;;;;;;;4.43;1.13;;;9.90;99.90;;;;;;5054417;28;20037;-56
2023/12/23 11:54:55;;;;;;;2.47;0.70;;;9.90;99.90;;;;;;5054633;28;20079;-55
2023/12/23 11:57:21;;;;;;;4.97;1.00;;;10.00;99.90;;;;;;5054215;28;20033;-56
2023/12/23 11:59:48;;;;;;;2.07;0.87;;;10.00;99.90;;;;;;5054536;28;20033;-53
2023/12/23 12:02:14;;;;;;;11.33;4.00;;;10.10;99.90;;;;;;5054028;28;20067;-54
2023/12/23 12:04:39;;;;;;;3.53;1.13;;;10.20;99.90;;;;;;5054579;28;20033;-52
2023/12/23 12:07:05;;;;;;;5.03;0.90;;;10.20;99.90;;;;;;5054669;28;20067;-56
2023/12/23 12:09:32;;;;;;;6.07;0.60;;;10.10;99.90;;;;;;5037149;28;20129;-55
2023/12/23 12:11:59;;;;;;;4.67;0.87;;;10.20;99.90;;;;;;5054790;28;20500;-54
2023/12/23 12:14:26;;;;;;;3.80;0.80;;;10.30;99.90;;;;;;5054585;28;20060;-54
2023/12/23 12:16:51;;;;;;;5.83;0.87;;;10.30;99.90;;;;;;5054830;28;20079;-53
2023/12/23 12:19:17;;;;;;;5.47;1.10;;;10.30;99.90;;;;;;5054469;28;20211;-52
2023/12/23 12:21:43;;;;;;;6.57;1.33;;;10.30;99.90;;;;;;5037067;28;20048;-54
2023/12/23 12:24:09;;;;;;;2.50;0.63;;;10.30;99.90;;;;;;5035700;28;20082;-55
2023/12/23 12:26:34;;;;;;;3.17;0.80;;;10.40;99.90;;;;;;5053541;28;20021;-56
2023/12/23 12:29:00;;;;;;;7.43;1.00;;;10.40;99.90;;;;;;5053402;28;20179;-56
2023/12/23 12:31:26;;;;;;;3.03;1.00;;;10.40;99.90;;;;;;5053324;28;20389;-56
2023/12/23 12:33:52;;;;;;;3.80;0.60;;;10.40;99.90;;;;;;5053542;28;20466;-57
2023/12/23 12:36:18;;;;;;;1.30;0.70;;;10.40;99.90;;;;;;5053519;28;20017;-56
2023/12/23 12:38:44;;;;;;;8.83;1.03;;;10.50;99.90;;;;;;5053344;28;20029;-56
2023/12/23 12:41:12;;;;;;;2.70;0.77;;;10.50;99.90;;;;;;5053501;28;20107;-56
2023/12/23 12:43:39;;;;;;;1.23;0.60;;;10.60;99.90;;;;;;5053600;28;20032;-56
2023/12/23 12:46:05;;;;;;;3.40;0.90;;;10.50;99.90;;;;;;5053459;28;20134;-54
2023/12/23 12:48:32;;;;;;;2.23;0.90;;;10.50;99.90;;;;;;5053283;28;20029;-53
2023/12/23 12:50:57;;;;;;;3.93;1.10;;;10.60;99.90;;;;;;5053494;28;20031;-55